Sedan, Minnesota
Current Conditions -  °F | °C
As of 8:13 PM on Monday 24 Nov 2014 (Local Time) from KGHW Reporting Station
Scattered Clouds Scattered Clouds  
Wind Chill: -7°   Ceiling: Unl
Heat Index: 10°   Visibility: 10mi
Dew Point:   Wind: 17mph
Humidity: 92%   Direction: 310°NW
Pressure: 29.89"   Gusts: 22mph
Location:  45.6105°N, 95.373°W
Report Text: KGHW 250213Z AUTO 31015G19KT 10SM SCT010 M12/M13 A2989 RMK AO2
Loading
Personal Weather Stations






























Interactive Weather Map New forecast layout! Learn more

10-Day Weather Forecast

Advertisements
Track Severe Weather on mobile